Time;durP1;ratioP1;P1;durP2;ratioP2;P2;SDS_P1;SDS_P2;PMS_P1;PMS_P2;Temp;Humidity;BMP_temperature;BMP_pressure;BME280_temperature;BME280_humidity;BME280_pressure;Samples;Min_cycle;Max_cycle;Signal;HPM_P1;HPM_P2
2022/01/12 00:00:05;;;;;;;59.75;22.02;;;;;;;7.14;75.10;103655.56;4958526;28;20046;-60
2022/01/12 00:02:31;;;;;;;57.83;21.88;;;;;;;7.11;75.46;103665.75;4956685;28;20233;-61
2022/01/12 00:04:57;;;;;;;59.30;21.70;;;;;;;7.11;75.45;103665.75;4955572;28;20059;-59
2022/01/12 00:07:23;;;;;;;56.03;20.98;;;;;;;7.18;75.42;103662.78;4954260;28;20423;-62
2022/01/12 00:09:48;;;;;;;59.65;22.08;;;;;;;7.18;75.10;103655.00;4954696;28;20529;-59
2022/01/12 00:12:13;;;;;;;61.38;21.80;;;;;;;7.12;75.32;103654.56;4958516;28;20047;-60
2022/01/12 00:14:39;;;;;;;59.42;21.63;;;;;;;7.11;75.41;103649.28;4960676;28;20572;-59
2022/01/12 00:17:04;;;;;;;51.90;20.73;;;;;;;7.10;75.10;103639.69;4962145;28;20478;-59
2022/01/12 00:19:30;;;;;;;56.50;20.25;;;;;;;7.04;75.49;103640.16;4949001;28;21479;-60
2022/01/12 00:21:56;;;;;;;51.28;19.50;;;;;;;7.02;75.44;103636.53;4953790;28;20045;-59
2022/01/12 00:24:25;;;;;;;56.15;19.80;;;;;;;6.97;75.49;103619.75;4953169;28;20046;-60
2022/01/12 00:35:02;;;;;;;46.90;17.27;;;;;;;7.01;75.74;103633.84;4964193;28;20049;-58
2022/01/12 00:37:27;;;;;;;44.83;17.63;;;;;;;7.04;75.57;103634.97;4952833;28;20414;-60
2022/01/12 00:39:58;;;;;;;49.88;18.35;;;;;;;7.03;75.44;103646.13;4952670;28;20616;-59
2022/01/12 00:42:25;;;;;;;48.63;18.10;;;;;;;7.02;75.85;103653.78;4957376;28;20047;-59
2022/01/12 00:44:52;;;;;;;49.33;18.13;;;;;;;7.06;75.61;103656.72;4956129;28;20046;-59
2022/01/12 00:47:19;;;;;;;47.63;17.73;;;;;;;7.09;75.95;103658.63;4960828;28;20038;-59
2022/01/12 00:49:44;;;;;;;46.55;17.48;;;;;;;7.03;75.72;103655.59;4954785;28;20127;-59
2022/01/12 00:52:11;;;;;;;50.83;17.90;;;;;;;7.01;75.73;103647.72;4954770;28;20066;-60
2022/01/12 00:54:37;;;;;;;46.92;18.10;;;;;;;7.04;75.86;103653.13;4959064;28;20062;-59
2022/01/12 00:57:02;;;;;;;45.70;17.95;;;;;;;7.07;75.53;103650.75;4958586;28;20052;-60
2022/01/12 00:59:28;;;;;;;47.58;17.50;;;;;;;7.02;75.81;103651.19;4948680;28;20575;-59
2022/01/12 01:01:54;;;;;;;50.28;18.45;;;;;;;7.00;75.51;103645.00;4954716;28;20066;-59
2022/01/12 01:04:19;;;;;;;49.97;18.33;;;;;;;7.02;75.80;103654.69;4952655;28;20514;-59
2022/01/12 01:06:45;;;;;;;47.42;17.08;;;;;;;7.01;75.80;103644.22;4961849;28;20044;-60
2022/01/12 01:09:10;;;;;;;50.92;17.77;;;;;;;7.01;75.62;103641.63;4956817;28;20049;-59
2022/01/12 01:11:35;;;;;;;53.38;18.17;;;;;;;6.99;75.48;103635.41;4950330;28;20049;-59
2022/01/12 01:14:10;;;;;;;54.58;18.98;;;;;;;7.00;75.83;103632.94;4958199;28;20425;-58
2022/01/12 01:17:18;;;;;;;53.92;18.77;;;;;;;7.00;75.83;103629.44;4958267;28;20047;-59
2022/01/12 01:27:35;;;;;;;51.85;17.60;;;;;;;6.98;75.57;103628.44;4946773;28;20081;-59
2022/01/12 01:30:01;;;;;;;49.00;17.60;;;;;;;6.95;75.86;103623.94;4956507;28;20039;-59
2022/01/12 01:32:27;;;;;;;48.72;17.27;;;;;;;6.97;75.93;103632.72;4961038;28;20049;-59
2022/01/12 01:34:53;;;;;;;48.47;17.27;;;;;;;6.97;75.88;103643.09;4959281;28;20042;-59
2022/01/12 01:37:20;;;;;;;49.63;17.55;;;;;;;6.98;75.72;103644.88;4958970;28;20409;-59
2022/01/12 01:39:46;;;;;;;48.55;17.48;;;;;;;7.03;76.03;103655.59;4951500;28;20056;-59
2022/01/12 01:42:27;;;;;;;44.63;17.45;;;;;;;7.03;76.04;103665.97;4957435;28;20057;-59
2022/01/12 01:55:40;;;;;;;45.60;17.27;;;;;;;7.27;75.63;103722.22;4952543;28;20093;-59
2022/01/12 01:58:05;;;;;;;43.88;16.10;;;;;;;7.42;75.30;103740.59;4956443;28;20465;-60
2022/01/12 02:00:33;;;;;;;46.25;17.70;;;;;;;7.36;75.49;103743.66;4954027;28;20509;-60
2022/01/12 02:03:00;;;;;;;45.63;16.38;;;;;;;7.37;75.44;103744.56;4960083;28;20034;-60
2022/01/12 02:05:26;;;;;;;45.78;17.17;;;;;;;7.34;75.44;103745.22;4947659;28;20077;-60
2022/01/12 02:07:52;;;;;;;48.00;17.38;;;;;;;7.34;75.58;103753.91;4975792;28;20050;-59
2022/01/12 02:10:17;;;;;;;43.58;15.80;;;;;;;7.37;75.40;103748.06;4963598;28;20072;-59
2022/01/12 02:12:42;;;;;;;45.03;16.98;;;;;;;7.38;75.92;103754.16;4956916;28;20504;-59
2022/01/12 02:15:21;;;;;;;51.72;17.52;;;;;;;7.37;75.54;103749.75;4954128;28;20805;-60
2022/01/12 02:37:08;;;;;;;50.97;17.58;;;;;;;7.47;75.46;103767.78;4957461;28;20465;-61
2022/01/12 02:39:50;;;;;;;47.13;17.13;;;;;;;7.43;75.74;103764.06;4953313;28;20054;-61
2022/01/12 02:42:18;;;;;;;49.58;18.02;;;;;;;7.45;75.31;103774.53;4957372;28;20038;-60
2022/01/12 02:55:49;;;;;;;57.17;18.58;;;;;;;7.50;75.71;103771.47;4954789;28;20305;-59
2022/01/12 02:58:14;;;;;;;60.45;19.10;;;;;;;7.53;75.94;103771.72;4953596;28;20050;-59
2022/01/12 03:01:16;;;;;;;58.63;19.75;;;;;;;7.54;75.98;103767.44;4952913;28;20317;-60
2022/01/12 03:03:29;;;;;;;64.53;19.00;;;;;;;7.54;75.76;103768.31;4949132;28;20105;-62
2022/01/12 03:05:58;;;;;;;57.25;19.25;;;;;;;7.55;75.90;103759.75;4955731;28;20076;-60
2022/01/12 03:08:25;;;;;;;58.75;18.23;;;;;;;7.57;75.71;103757.25;4957710;28;20457;-59
2022/01/12 03:10:50;;;;;;;55.03;19.10;;;;;;;7.54;75.80;103742.38;4960151;28;20141;-60
2022/01/12 03:13:16;;;;;;;56.00;18.52;;;;;;;7.53;75.76;103742.25;4957518;28;20163;-60
2022/01/12 03:15:42;;;;;;;62.00;19.25;;;;;;;7.52;75.80;103736.16;4945289;28;20038;-60
2022/01/12 03:18:07;;;;;;;63.85;20.23;;;;;;;7.54;75.87;103759.63;4953927;28;20049;-60
2022/01/12 03:20:33;;;;;;;60.03;19.73;;;;;;;7.54;75.75;103763.13;4948799;28;20085;-60
2022/01/12 03:22:59;;;;;;;66.60;20.30;;;;;;;7.54;76.24;103772.63;4953107;28;20375;-59
2022/01/12 03:25:24;;;;;;;63.65;19.85;;;;;;;7.57;75.96;103778.91;4949132;28;20057;-63
2022/01/12 03:27:51;;;;;;;66.53;20.50;;;;;;;7.60;75.83;103788.63;4948311;28;20050;-59
2022/01/12 03:30:16;;;;;;;72.78;20.85;;;;;;;7.60;75.80;103791.22;4953587;28;20338;-60
2022/01/12 03:32:47;;;;;;;73.80;21.08;;;;;;;7.59;75.95;103790.31;4958634;28;20042;-60
2022/01/12 03:35:46;;;;;;;64.38;20.42;;;;;;;7.60;75.90;103788.63;4957354;28;20047;-60
2022/01/12 03:38:20;;;;;;;62.83;19.77;;;;;;;7.60;75.79;103792.13;4956878;28;20477;-60
2022/01/12 03:40:45;;;;;;;;;;;;;;;7.59;75.91;103790.31;4959647;28;20050;-59
2022/01/12 03:43:11;;;;;;;63.92;19.40;;;;;;;7.59;76.12;103794.63;4959214;28;19930;-59
2022/01/12 03:45:36;;;;;;;71.03;20.23;;;;;;;7.59;76.11;103795.50;4952823;28;20332;-60
2022/01/12 03:48:02;;;;;;;80.00;21.65;;;;;;;7.56;76.29;103792.69;4957118;28;20507;-60
2022/01/12 03:50:27;;;;;;;68.15;20.08;;;;;;;7.62;76.13;103803.50;4959251;28;20038;-59
2022/01/12 03:52:53;;;;;;;71.78;20.63;;;;;;;7.63;75.80;103809.59;4956570;28;20347;-59
2022/01/12 03:55:19;;;;;;;75.88;21.27;;;;;;;7.64;75.83;103807.13;4961275;28;20041;-60
2022/01/12 03:57:45;;;;;;;78.43;21.75;;;;;;;7.62;76.00;103803.50;4941611;28;20077;-59
2022/01/12 04:00:11;;;;;;;73.68;20.98;;;;;;;7.63;75.94;103804.41;4959768;28;20384;-59
2022/01/12 04:02:39;;;;;;;73.07;21.25;;;;;;;7.68;75.81;103809.16;4957782;28;20053;-59
2022/01/12 04:05:12;;;;;;;82.47;22.17;;;;;;;7.63;75.98;103794.94;4961643;28;20315;-60
2022/01/12 04:10:21;;;;;;;78.18;21.70;;;;;;;7.59;76.02;103785.13;4960805;28;20090;-60
2022/01/12 04:12:46;;;;;;;76.50;20.88;;;;;;;7.55;75.95;103783.13;4961098;28;20121;-60
2022/01/12 04:15:12;;;;;;;84.63;20.98;;;;;;;7.50;76.16;103779.25;4959035;28;20610;-59
2022/01/12 04:17:37;;;;;;;79.15;20.90;;;;;;;7.47;76.04;103783.34;4951534;28;20712;-60
2022/01/12 04:20:03;;;;;;;81.70;21.77;;;;;;;7.41;76.22;103788.09;4955065;28;20066;-60
2022/01/12 04:25:13;;;;;;;77.88;20.67;;;;;;;7.32;76.16;103797.00;4959507;28;20053;-60
2022/01/12 04:27:39;;;;;;;85.30;22.33;;;;;;;7.36;76.30;103808.53;4952269;28;20054;-60
2022/01/12 04:30:06;;;;;;;90.47;22.38;;;;;;;7.33;76.15;103810.88;4954572;28;20446;-59
2022/01/12 04:32:35;;;;;;;89.15;22.05;;;;;;;7.34;76.38;103812.69;4956704;28;20593;-60
2022/01/12 04:35:00;;;;;;;76.10;20.75;;;;;;;7.33;76.24;103821.25;4960532;28;20490;-61
2022/01/12 04:37:26;;;;;;;70.68;19.88;;;;;;;7.27;75.98;103824.31;4949397;28;20045;-61
2022/01/12 04:39:52;;;;;;;80.10;20.95;;;;;;;7.17;76.04;103810.56;4963690;28;20046;-59
2022/01/12 04:42:17;;;;;;;66.60;19.10;;;;;;;7.04;75.81;103802.66;4959484;28;20450;-59
2022/01/12 04:44:45;;;;;;;69.85;19.65;;;;;;;6.93;75.62;103796.69;4960488;28;20607;-58
2022/01/12 04:47:27;;;;;;;58.35;18.38;;;;;;;6.84;75.28;103802.06;4959154;28;20324;-59
2022/01/12 04:49:52;;;;;;;69.88;19.25;;;;;;;6.76;75.32;103807.47;4959988;28;20038;-58
2022/01/12 04:52:17;;;;;;;66.72;19.45;;;;;;;6.61;75.19;103799.44;4962759;28;20046;-59
2022/01/12 04:54:43;;;;;;;59.58;18.42;;;;;;;6.47;75.16;103800.97;4956568;28;20486;-58
2022/01/12 04:57:08;;;;;;;55.75;18.00;;;;;;;6.37;74.76;103794.97;4957474;28;20065;-58
2022/01/12 04:59:38;;;;;;;56.10;17.70;;;;;;;6.32;74.69;103801.50;4951805;28;20068;-59
2022/01/12 05:06:20;;;;;;;66.63;19.05;;;;;;;6.28;75.17;103809.84;4961169;28;20137;-59
2022/01/12 05:07:44;;;;;;;56.72;17.35;;;;;;;6.14;74.94;103808.75;4951671;28;20073;-59
2022/01/12 05:12:55;;;;;;;74.90;19.10;;;;;;;6.14;75.37;103823.38;4956608;28;21782;-59
2022/01/12 05:15:31;;;;;;;75.38;18.85;;;;;;;6.11;75.73;103827.53;4946115;28;20050;-59
2022/01/12 05:17:57;;;;;;;84.00;20.33;;;;;;;6.13;76.11;103829.34;4954244;28;20555;-59
2022/01/12 05:20:23;;;;;;;69.15;18.73;;;;;;;6.17;75.93;103836.56;4958335;28;20429;-59
2022/01/12 05:22:48;;;;;;;79.78;20.38;;;;;;;6.14;75.84;103833.75;4962851;28;20401;-59
2022/01/12 05:25:17;;;;;;;106.43;21.27;;;;;;;6.15;76.18;103831.28;4975965;28;20050;-59
2022/01/12 05:27:42;;;;;;;120.53;19.63;;;;;;;6.13;76.38;103829.34;4948022;28;20507;-59
2022/01/12 05:30:08;;;;;;;96.55;19.40;;;;;;;6.11;76.38;103827.53;4957845;28;20042;-59
2022/01/12 05:32:34;;;;;;;210.18;19.98;;;;;;;6.07;76.46;103832.34;4948806;28;20050;-58
2022/01/12 05:35:02;;;;;;;143.18;20.35;;;;;;;6.03;76.83;103831.22;4956811;28;20584;-59
2022/01/12 05:37:27;;;;;;;113.60;19.73;;;;;;;6.04;76.68;103840.78;4955259;28;20078;-59
2022/01/12 05:39:52;;;;;;;66.78;18.30;;;;;;;6.05;76.86;103839.09;4958125;28;20133;-59
2022/01/12 05:42:18;;;;;;;138.15;19.13;;;;;;;6.09;76.41;103847.25;4959451;28;20537;-58
2022/01/12 05:44:43;;;;;;;105.20;18.77;;;;;;;6.09;76.41;103849.84;4960401;28;21032;-58
2022/01/12 05:47:19;;;;;;;108.13;18.95;;;;;;;6.06;76.72;103844.41;4962259;28;20042;-59
2022/01/12 05:49:45;;;;;;;83.03;18.23;;;;;;;6.07;76.83;103855.66;4943437;28;22068;-59
2022/01/12 05:52:11;;;;;;;46.85;16.77;;;;;;;6.11;76.53;103857.72;4956216;28;20497;-59
2022/01/12 05:54:36;;;;;;;44.80;16.92;;;;;;;6.12;76.32;103856.94;4959515;28;20129;-60
2022/01/12 05:57:02;;;;;;;127.53;18.90;;;;;;;6.05;76.32;103855.53;4963153;28;20044;-59
2022/01/12 05:59:27;;;;;;;126.32;18.67;;;;;;;6.00;76.31;103858.56;4951234;28;20449;-59
2022/01/12 06:01:53;;;;;;;113.63;17.88;;;;;;;5.96;76.40;103862.59;4952513;28;20129;-60
2022/01/12 06:04:18;;;;;;;116.57;17.42;;;;;;;5.93;76.43;103857.16;4956445;28;20081;-60
2022/01/12 06:06:44;;;;;;;118.40;18.92;;;;;;;5.91;76.45;103866.50;4957510;28;20046;-60
2022/01/12 06:09:09;;;;;;;43.85;16.90;;;;;;;5.97;76.07;103879.03;4958601;28;20117;-60
2022/01/12 06:11:35;;;;;;;71.68;16.67;;;;;;;5.99;75.83;103885.22;4952514;28;20116;-61
2022/01/12 06:14:00;;;;;;;86.28;17.70;;;;;;;5.94;75.92;103897.81;4957034;28;20042;-59
2022/01/12 06:16:25;;;;;;;67.22;17.60;;;;;;;5.89;76.13;103898.22;4962570;28;20046;-60
2022/01/12 06:18:52;;;;;;;68.55;17.70;;;;;;;5.91;76.19;103899.28;4954039;28;20046;-60
2022/01/12 06:21:17;;;;;;;93.10;18.23;;;;;;;5.92;76.34;103904.53;4959031;28;20073;-60
2022/01/12 06:23:43;;;;;;;43.53;15.55;;;;;;;5.89;76.44;103906.91;4953740;28;21658;-60
2022/01/12 06:26:09;;;;;;;110.90;17.05;;;;;;;5.83;76.37;103906.38;4953343;28;20125;-59
2022/01/12 06:28:38;;;;;;;67.30;16.83;;;;;;;5.78;76.29;103906.78;4959232;28;20026;-60
2022/01/12 06:31:12;;;;;;;132.73;17.05;;;;;;;5.71;76.37;103913.16;4957792;28;20123;-59
2022/01/12 06:33:40;;;;;;;64.43;16.02;;;;;;;5.64;76.45;103910.84;4949933;28;20054;-59
2022/01/12 06:36:06;;;;;;;103.72;16.95;;;;;;;5.63;76.50;103915.09;4961298;28;20096;-59
2022/01/12 06:38:31;;;;;;;78.75;16.75;;;;;;;5.62;76.41;103917.56;4951353;28;20050;-59
2022/01/12 06:40:57;;;;;;;58.38;15.60;;;;;;;5.58;76.45;103918.09;4956829;28;20045;-58
2022/01/12 06:43:22;;;;;;;86.45;16.35;;;;;;;5.54;76.86;103916.06;4951360;28;20327;-59
2022/01/12 06:45:48;;;;;;;49.60;15.45;;;;;;;5.52;76.33;103920.19;4953024;28;20161;-60
2022/01/12 06:48:13;;;;;;;52.97;14.88;;;;;;;5.50;76.66;103922.63;4958002;28;20062;-59
2022/01/12 06:50:38;;;;;;;51.78;15.05;;;;;;;5.51;76.82;103931.31;4958581;28;20104;-59
2022/01/12 06:53:04;;;;;;;46.58;15.45;;;;;;;5.54;76.58;103940.25;4951530;28;20038;-59
2022/01/12 06:55:30;;;;;;;52.22;15.25;;;;;;;5.60;76.34;103945.03;4952399;28;20414;-58
2022/01/12 06:57:55;;;;;;;66.25;15.13;;;;;;;5.66;76.36;103941.25;4954249;28;20050;-59
2022/01/12 07:00:20;;;;;;;46.28;14.35;;;;;;;5.78;76.10;103953.38;4957989;28;20146;-59
2022/01/12 07:02:46;;;;;;;42.85;13.90;;;;;;;5.82;76.37;103960.63;4961799;28;20145;-60
2022/01/12 07:05:11;;;;;;;28.23;12.63;;;;;;;5.91;76.13;103964.91;4953914;28;20076;-60
2022/01/12 07:07:36;;;;;;;41.08;14.25;;;;;;;5.92;76.18;103968.38;4953319;28;20081;-59
2022/01/12 07:10:03;;;;;;;47.40;12.77;;;;;;;6.02;76.31;103965.78;4963075;28;21035;-59
2022/01/12 07:12:28;;;;;;;71.10;14.98;;;;;;;5.94;76.02;103962.56;4957503;28;20444;-59
2022/01/12 07:14:53;;;;;;;118.68;15.15;;;;;;;5.93;76.34;103962.41;4950962;28;20080;-58
2022/01/12 07:17:19;;;;;;;74.78;15.05;;;;;;;5.90;76.43;103963.09;4956112;28;20532;-58
2022/01/12 07:19:45;;;;;;;77.78;15.45;;;;;;;5.90;76.50;103960.50;4951825;28;20049;-59
2022/01/12 07:22:10;;;;;;;62.30;15.02;;;;;;;5.92;76.61;103965.78;4960810;28;20049;-59
2022/01/12 07:24:36;;;;;;;51.45;14.88;;;;;;;5.92;76.45;103964.09;4954901;28;20615;-59
2022/01/12 07:27:01;;;;;;;66.07;16.20;;;;;;;5.93;76.46;103957.25;4959779;28;20038;-60
2022/01/12 07:29:26;;;;;;;54.15;15.20;;;;;;;5.94;76.41;103961.66;4945061;28;20046;-59
2022/01/12 07:31:52;;;;;;;62.78;15.23;;;;;;;5.90;76.48;103960.50;4951235;28;20145;-59
2022/01/12 07:34:17;;;;;;;65.50;14.60;;;;;;;5.85;76.13;103959.19;4951527;28;20054;-60
2022/01/12 07:36:43;;;;;;;55.00;14.95;;;;;;;5.83;76.38;103972.78;4960032;28;20042;-59
2022/01/12 07:39:08;;;;;;;52.22;12.98;;;;;;;5.81;76.34;103983.00;4967060;28;20764;-60
2022/01/12 07:41:34;;;;;;;28.17;11.07;;;;;;;5.82;76.98;103979.66;4946279;28;20117;-61
2022/01/12 07:43:59;;;;;;;54.72;11.48;;;;;;;5.79;76.54;103984.59;4963840;28;20476;-60
2022/01/12 07:46:24;;;;;;;84.00;12.25;;;;;;;5.77;76.87;103983.53;4952243;28;20526;-59
2022/01/12 07:48:50;;;;;;;70.07;11.68;;;;;;;5.77;76.44;103986.13;4959501;28;20964;-59
2022/01/12 07:51:15;;;;;;;63.22;11.77;;;;;;;5.78;76.55;103990.53;4956529;28;20490;-59
2022/01/12 07:53:40;;;;;;;55.55;12.27;;;;;;;5.78;76.38;103993.13;4951964;28;20754;-60
2022/01/12 07:56:07;;;;;;;69.38;15.02;;;;;;;5.78;76.46;103993.13;4952782;28;20682;-61
2022/01/12 07:58:32;;;;;;;66.88;14.95;;;;;;;5.73;76.69;104002.19;4952008;28;20050;-59
2022/01/12 08:00:57;;;;;;;72.03;14.60;;;;;;;5.67;76.30;104010.34;4950123;28;20077;-59
2022/01/12 08:03:23;;;;;;;61.35;14.30;;;;;;;5.65;76.17;104013.59;4954441;28;20072;-59
2022/01/12 08:05:50;;;;;;;76.97;14.60;;;;;;;5.61;76.68;104027.94;4953731;28;20050;-58
2022/01/12 08:08:15;;;;;;;83.80;13.65;;;;;;;5.63;76.59;104021.22;4960467;28;20050;-59
2022/01/12 08:10:41;;;;;;;70.82;14.50;;;;;;;5.66;77.06;104024.09;4953008;28;20046;-59
2022/01/12 08:13:06;;;;;;;72.30;14.30;;;;;;;5.69;76.90;104037.25;4958077;28;20050;-59
2022/01/12 08:15:32;;;;;;;69.72;13.65;;;;;;;5.69;76.57;104044.13;4951714;28;20145;-59
2022/01/12 08:17:57;;;;;;;71.57;13.27;;;;;;;5.77;76.74;104032.72;4957087;28;20458;-61
2022/01/12 08:20:26;;;;;;;123.07;13.60;;;;;;;5.76;76.55;104043.84;4956679;28;20700;-59
2022/01/12 08:22:52;;;;;;;160.00;13.95;;;;;;;5.76;76.48;104048.13;4960559;28;20101;-58
2022/01/12 08:25:17;;;;;;;138.48;12.93;;;;;;;5.76;76.40;104042.94;4959009;28;20050;-61
2022/01/12 08:27:43;;;;;;;211.55;13.23;;;;;;;5.74;76.45;104048.00;4948724;28;20061;-59
2022/01/12 08:30:16;;;;;;;127.22;11.23;;;;;;;5.76;76.23;104048.13;4955538;28;20041;-59
2022/01/12 08:32:44;;;;;;;142.20;12.07;;;;;;;5.82;76.18;104046.06;4954980;28;20038;-60
2022/01/12 08:35:10;;;;;;;114.93;11.93;;;;;;;5.80;76.65;104048.50;4961793;28;20744;-60
2022/01/12 08:37:35;;;;;;;121.03;11.98;;;;;;;5.81;76.06;104057.19;4949255;28;20507;-58
2022/01/12 08:40:01;;;;;;;127.43;11.50;;;;;;;5.84;76.36;104060.94;4956892;28;20042;-59
2022/01/12 08:42:26;;;;;;;103.88;11.50;;;;;;;5.90;76.30;104068.34;4959829;28;20034;-59
2022/01/12 08:44:52;;;;;;;95.82;11.35;;;;;;;5.94;76.19;104065.22;4953069;28;20566;-59
2022/01/12 08:47:18;;;;;;;32.65;10.82;;;;;;;6.01;76.19;104078.81;4956208;28;20171;-59
2022/01/12 08:49:44;;;;;;;127.32;11.57;;;;;;;6.01;75.78;104080.50;4955765;28;20034;-59
2022/01/12 08:52:09;;;;;;;128.60;11.70;;;;;;;6.03;76.04;104076.38;4955669;28;20105;-60
2022/01/12 08:54:35;;;;;;;89.15;11.35;;;;;;;6.04;76.15;104076.47;4957513;28;20073;-60
2022/01/12 08:57:00;;;;;;;86.72;11.93;;;;;;;6.05;75.96;104079.97;4956091;28;20168;-59
2022/01/12 08:59:26;;;;;;;96.03;12.10;;;;;;;6.08;75.63;104083.72;4945733;28;20053;-61
2022/01/12 09:01:52;;;;;;;114.20;10.73;;;;;;;6.02;75.81;104083.22;4955908;28;20741;-61
2022/01/12 09:04:17;;;;;;;50.22;9.57;;;;;;;6.10;75.55;104089.00;4959289;28;20609;-60
2022/01/12 09:06:42;;;;;;;72.80;11.02;;;;;;;6.10;75.48;104104.56;4958008;28;20454;-59
2022/01/12 09:09:08;;;;;;;72.20;9.35;;;;;;;6.07;75.77;104105.22;4957592;28;20946;-59
2022/01/12 09:11:33;;;;;;;99.85;8.15;;;;;;;6.06;75.55;104106.00;4947933;28;20046;-60
2022/01/12 09:13:59;;;;;;;83.57;6.93;;;;;;;6.05;75.52;104104.19;4961258;28;20394;-60
2022/01/12 09:16:24;;;;;;;90.85;6.30;;;;;;;6.02;75.28;104116.91;4957334;28;20548;-58
2022/01/12 09:18:49;;;;;;;99.97;7.00;;;;;;;6.06;75.32;104121.53;4947475;28;20390;-59
2022/01/12 09:21:15;;;;;;;83.10;6.72;;;;;;;6.09;75.29;104123.50;4956857;28;20129;-59
2022/01/12 09:23:40;;;;;;;63.72;6.35;;;;;;;6.02;75.26;104127.25;4949558;28;20559;-59
2022/01/12 09:26:06;;;;;;;52.30;7.32;;;;;;;5.95;75.43;104137.88;4956080;28;20884;-59
2022/01/12 09:28:32;;;;;;;81.25;7.15;;;;;;;6.01;75.72;104133.22;4956920;28;20289;-59
2022/01/12 09:30:57;;;;;;;82.85;8.05;;;;;;;6.08;75.51;104137.22;4956601;28;20512;-59
2022/01/12 09:33:23;;;;;;;59.67;8.10;;;;;;;6.18;75.33;104141.47;4944600;28;20129;-58
2022/01/12 09:35:50;;;;;;;40.67;8.45;;;;;;;6.27;75.30;104144.84;4956220;28;20584;-59
2022/01/12 09:38:18;;;;;;;57.63;7.78;;;;;;;6.34;75.82;104142.84;4952301;28;20045;-59
2022/01/12 09:40:44;;;;;;;91.25;8.93;;;;;;;6.49;75.60;104145.81;4954966;28;20616;-58
2022/01/12 09:43:10;;;;;;;79.65;8.63;;;;;;;6.56;75.62;104148.13;4959791;28;20050;-58
2022/01/12 09:45:38;;;;;;;73.90;8.50;;;;;;;6.67;75.60;104155.09;4952990;28;20058;-58
2022/01/12 09:48:03;;;;;;;45.83;8.90;;;;;;;6.77;75.40;104146.38;4957052;28;20147;-59
2022/01/12 09:50:30;;;;;;;86.47;9.98;;;;;;;6.77;75.39;104155.03;4953320;28;20444;-58
2022/01/12 09:52:56;;;;;;;98.95;9.25;;;;;;;6.76;74.73;104155.84;4956277;28;20046;-59
2022/01/12 09:55:21;;;;;;;131.63;10.15;;;;;;;6.78;75.37;104156.84;4957022;28;20092;-59
2022/01/12 09:57:47;;;;;;;85.78;9.23;;;;;;;6.87;75.09;104152.44;4943652;28;20046;-58
2022/01/12 10:00:15;;;;;;;59.97;10.02;;;;;;;7.00;75.18;104154.31;4957653;28;20076;-58
2022/01/12 10:02:41;;;;;;;107.70;11.15;;;;;;;7.04;75.21;104145.97;4955566;28;20413;-58
2022/01/12 10:05:09;;;;;;;225.93;13.00;;;;;;;7.05;75.03;104162.47;4956394;28;20474;-59
2022/01/12 10:07:35;;;;;;;181.45;13.43;;;;;;;7.10;74.68;104174.09;4946839;28;20038;-58
2022/01/12 10:10:14;;;;;;;274.55;14.05;;;;;;;7.04;74.48;104171.00;4954371;28;20572;-58
2022/01/12 10:12:50;;;;;;;227.55;14.02;;;;;;;6.93;74.43;104175.34;4959230;28;20047;-59
2022/01/12 10:15:16;;;;;;;212.18;13.98;;;;;;;7.02;74.60;104177.75;4960154;28;20050;-57
2022/01/12 10:17:45;;;;;;;128.85;13.38;;;;;;;7.13;75.04;104177.88;4945209;28;20046;-58
2022/01/12 10:20:17;;;;;;;158.73;15.38;;;;;;;7.19;74.64;104167.97;4933752;28;20117;-58
2022/01/12 10:22:57;;;;;;;176.63;13.77;;;;;;;7.24;74.97;104164.06;4948810;28;20050;-59
2022/01/12 10:25:23;;;;;;;116.20;13.20;;;;;;;7.33;75.18;104156.06;4949913;28;20630;-59
2022/01/12 10:27:49;;;;;;;112.43;12.50;;;;;;;7.36;75.02;104164.09;4953362;28;20046;-59
2022/01/12 10:30:26;;;;;;;136.05;11.77;;;;;;;7.44;74.30;104150.00;4959390;28;20042;-58
2022/01/12 10:33:09;;;;;;;68.70;11.27;;;;;;;7.61;74.60;104146.16;4954144;28;20049;-58
2022/01/12 10:35:40;;;;;;;97.60;11.40;;;;;;;7.60;74.93;104147.84;4933471;28;20046;-57
2022/01/12 10:38:14;;;;;;;94.38;12.40;;;;;;;7.72;74.29;104150.47;4948468;28;20153;-59
2022/01/12 10:40:50;;;;;;;79.07;11.30;;;;;;;7.78;74.46;104145.75;4945990;28;20752;-57
2022/01/12 10:43:25;;;;;;;78.95;11.60;;;;;;;7.87;74.20;104142.97;4949513;28;20147;-59
2022/01/12 10:45:50;;;;;;;229.05;13.52;;;;;;;7.90;74.28;104145.78;4953214;28;20414;-57
2022/01/12 10:48:16;;;;;;;216.63;12.27;;;;;;;7.89;73.70;104149.16;4948175;28;20047;-58
2022/01/12 10:50:55;;;;;;;74.45;10.98;;;;;;;7.92;73.34;104152.00;4947345;28;20057;-58
2022/01/12 10:53:28;;;;;;;37.33;10.70;;;;;;;8.07;74.06;104159.28;4933117;28;20550;-57
2022/01/12 10:56:08;;;;;;;54.53;10.25;;;;;;;8.22;73.55;104163.81;4948394;28;20053;-57
2022/01/12 10:58:35;;;;;;;85.10;10.55;;;;;;;8.17;73.54;104167.78;4952642;28;20053;-58
2022/01/12 11:01:01;;;;;;;104.75;11.20;;;;;;;8.15;72.99;104167.66;4952654;28;20050;-58
2022/01/12 11:03:26;;;;;;;127.15;11.15;;;;;;;8.17;73.48;104159.97;4926821;28;20041;-57
2022/01/12 11:05:58;;;;;;;109.03;11.65;;;;;;;8.20;73.12;104155.00;4945379;28;20458;-57
2022/01/12 11:08:24;;;;;;;134.02;11.60;;;;;;;8.11;73.21;104148.31;4954323;28;20070;-58
2022/01/12 11:10:51;;;;;;;156.40;11.55;;;;;;;8.00;73.72;104149.19;4952347;28;20154;-58
2022/01/12 11:13:16;;;;;;;106.22;11.30;;;;;;;8.00;74.09;104150.88;4947640;28;20062;-58
2022/01/12 11:15:44;;;;;;;63.95;11.20;;;;;;;8.16;73.88;104146.06;4946583;28;20050;-59
2022/01/12 11:18:10;;;;;;;175.95;12.80;;;;;;;8.13;73.99;104136.34;4949997;28;20086;-58
2022/01/12 11:20:37;;;;;;;60.00;12.65;;;;;;;8.20;73.78;104124.72;4946657;28;20169;-59
2022/01/12 11:23:04;;;;;;;110.30;12.98;;;;;;;8.24;74.25;104126.75;4957914;28;20065;-56
2022/01/12 11:25:32;;;;;;;121.05;11.85;;;;;;;8.28;74.04;104131.41;4933923;28;20141;-59
2022/01/12 11:28:06;;;;;;;84.03;11.48;;;;;;;8.38;73.73;104130.41;4952857;28;20543;-58
2022/01/12 11:30:33;;;;;;;97.38;11.77;;;;;;;8.31;73.80;104126.44;4941709;28;20700;-59
2022/01/12 11:33:00;;;;;;;103.63;11.88;;;;;;;8.34;73.52;104126.69;4950974;28;20074;-59
2022/01/12 11:35:30;;;;;;;121.15;12.73;;;;;;;8.36;74.07;104121.56;4939731;28;20065;-60
2022/01/12 11:37:59;;;;;;;91.40;13.25;;;;;;;8.39;74.06;104116.63;4946288;28;21869;-59
2022/01/12 11:40:42;;;;;;;144.43;13.25;;;;;;;8.40;73.39;104116.75;4951663;28;20076;-59
2022/01/12 11:43:30;;;;;;;103.43;12.77;;;;;;;8.44;73.48;104110.97;4949882;28;20079;-59
2022/01/12 11:46:13;;;;;;;83.78;11.27;;;;;;;8.41;73.12;104122.84;4958261;28;20302;-59
2022/01/12 11:48:45;;;;;;;114.22;11.50;;;;;;;8.38;73.26;104114.81;4968395;28;20145;-59
2022/01/12 11:51:12;;;;;;;35.45;10.52;;;;;;;8.64;72.88;104122.84;4957665;28;20146;-58
2022/01/12 11:53:43;;;;;;;108.45;11.50;;;;;;;8.54;72.93;104116.03;4941983;28;20043;-59
2022/01/12 11:56:11;;;;;;;53.35;10.30;;;;;;;8.55;72.65;104119.53;4953408;28;20070;-58
2022/01/12 11:58:49;;;;;;;64.38;11.18;;;;;;;8.55;72.75;104116.94;4953782;28;20039;-58
2022/01/12 12:01:15;;;;;;;79.40;10.30;;;;;;;8.51;72.70;104113.22;4954373;28;21250;-58
2022/01/12 12:03:40;;;;;;;73.78;10.40;;;;;;;8.53;73.48;104110.75;4952273;28;20200;-58
2022/01/12 12:06:15;;;;;;;44.80;10.73;;;;;;;8.58;73.30;104106.78;4951666;28;20349;-59
2022/01/12 12:08:59;;;;;;;75.05;10.10;;;;;;;8.60;73.64;104102.56;4953974;28;20498;-59
2022/01/12 12:11:29;;;;;;;165.63;10.05;;;;;;;8.41;73.57;104104.66;4946359;28;20043;-60
2022/01/12 12:14:05;;;;;;;132.15;10.05;;;;;;;8.39;73.96;104101.03;4953827;28;20058;-58
2022/01/12 12:16:32;;;;;;;98.85;10.20;;;;;;;8.37;73.79;104097.41;4948829;28;20145;-59
2022/01/12 12:18:57;;;;;;;77.07;9.85;;;;;;;8.43;74.29;104097.84;4956911;28;20043;-59
2022/01/12 12:21:24;;;;;;;63.65;11.15;;;;;;;8.50;74.36;104098.41;4944027;28;20046;-59
2022/01/12 12:23:50;;;;;;;114.95;10.98;;;;;;;8.39;74.44;104099.31;4952729;28;20168;-59
2022/01/12 12:26:18;;;;;;;120.60;10.85;;;;;;;8.47;73.82;104094.69;4954456;28;20050;-59